Time;durP1;ratioP1;P1;durP2;ratioP2;P2;SDS_P1;SDS_P2;PMS_P1;PMS_P2;Temp;Humidity;BMP_temperature;BMP_pressure;BME280_temperature;BME280_humidity;BME280_pressure;Samples;Min_cycle;Max_cycle;Signal;HPM_P1;HPM_P2
2021/10/10 00:01:10;;;;;;;26.13;17.30;;;;;;;;;;4990695;28;20394;-71
2021/10/10 00:03:36;;;;;;;25.67;14.10;;;;;;;;;;5006461;28;20029;-71
2021/10/10 00:06:02;;;;;;;22.73;15.35;;;;;;;;;;4997752;28;20038;-71
2021/10/10 00:08:28;;;;;;;31.58;21.08;;;;;;;;;;4987453;28;20362;-71
2021/10/10 00:10:55;;;;;;;29.73;21.42;;;;;;;;;;4988258;28;20387;-71
2021/10/10 00:13:21;;;;;;;34.25;22.55;;;;;;;;;;5003544;28;20053;-71
2021/10/10 00:15:47;;;;;;;29.17;17.42;;;;;;;;;;4987565;28;20498;-71
2021/10/10 00:18:13;;;;;;;22.40;15.25;;;;;;;;;;4976963;28;20057;-71
2021/10/10 00:20:40;;;;;;;34.47;17.60;;;;;;;;;;4984171;28;20490;-71
2021/10/10 00:23:06;;;;;;;23.35;16.02;;;;;;;;;;4990380;28;20042;-71
2021/10/10 00:25:32;;;;;;;27.27;18.05;;;;;;;;;;4995939;28;20050;-71
2021/10/10 00:27:58;;;;;;;27.05;18.13;;;;;;;;;;4999051;28;20525;-71
2021/10/10 00:30:25;;;;;;;26.25;18.33;;;;;;;;;;5008393;28;20048;-71
2021/10/10 00:32:52;;;;;;;21.70;15.30;;;;;;;;;;4992558;28;20046;-71
2021/10/10 00:35:18;;;;;;;25.02;17.27;;;;;;;;;;5002113;28;20042;-72
2021/10/10 00:37:44;;;;;;;35.25;18.98;;;;;;;;;;4993810;28;20041;-71
2021/10/10 00:40:11;;;;;;;33.75;20.05;;;;;;;;;;5005456;28;20042;-71
2021/10/10 00:42:37;;;;;;;28.02;18.40;;;;;;;;;;4988012;28;20050;-71
2021/10/10 00:45:04;;;;;;;18.65;11.68;;;;;;;;;;5003754;28;20049;-71
2021/10/10 00:47:30;;;;;;;22.30;15.40;;;;;;;;;;4989870;28;20493;-71
2021/10/10 00:49:56;;;;;;;22.38;15.35;;;;;;;;;;5006744;28;20060;-71
2021/10/10 00:52:22;;;;;;;19.52;14.73;;;;;;;;;;4992476;28;20042;-71
2021/10/10 00:54:49;;;;;;;24.20;17.40;;;;;;;;;;5007733;28;20100;-71
2021/10/10 00:57:16;;;;;;;20.65;13.02;;;;;;;;;;4984695;28;20050;-71
2021/10/10 00:59:44;;;;;;;17.30;10.98;;;;;;;;;;4977056;28;20513;-71
2021/10/10 01:02:10;;;;;;;13.05;8.88;;;;;;;;;;4986152;28;20553;-71
2021/10/10 01:04:36;;;;;;;9.13;6.70;;;;;;;;;;4979167;28;20125;-71
2021/10/10 01:07:04;;;;;;;10.50;7.32;;;;;;;;;;4985518;28;20133;-71
2021/10/10 01:09:34;;;;;;;10.52;7.63;;;;;;;;;;4983036;28;20415;-71
2021/10/10 01:12:01;;;;;;;9.23;6.70;;;;;;;;;;4974755;28;20057;-71
2021/10/10 01:14:27;;;;;;;9.25;6.95;;;;;;;;;;4974259;28;20046;-71
2021/10/10 01:16:53;;;;;;;11.10;7.78;;;;;;;;;;4974304;28;20842;-71
2021/10/10 01:19:19;;;;;;;11.60;6.95;;;;;;;;;;4981000;28;20138;-71
2021/10/10 01:21:46;;;;;;;10.45;6.80;;;;;;;;;;4970376;28;20042;-71
2021/10/10 01:24:12;;;;;;;9.45;7.15;;;;;;;;;;4970683;28;20046;-71
2021/10/10 01:26:38;;;;;;;10.27;6.72;;;;;;;;;;4970007;28;20046;-71
2021/10/10 01:29:05;;;;;;;11.68;6.72;;;;;;;;;;4975810;28;20050;-71
2021/10/10 01:31:31;;;;;;;9.82;6.72;;;;;;;;;;4980839;28;20046;-71
2021/10/10 01:33:57;;;;;;;13.73;8.38;;;;;;;;;;4973287;28;20126;-72
2021/10/10 01:36:23;;;;;;;13.07;8.35;;;;;;;;;;4992269;28;20389;-71
2021/10/10 01:38:49;;;;;;;10.65;7.10;;;;;;;;;;4981054;28;20117;-71
2021/10/10 01:41:16;;;;;;;9.90;6.95;;;;;;;;;;4987218;28;20054;-71
2021/10/10 01:43:42;;;;;;;8.20;6.50;;;;;;;;;;4979536;28;20042;-71
2021/10/10 01:46:08;;;;;;;10.32;6.38;;;;;;;;;;4966781;28;20192;-71
2021/10/10 01:48:34;;;;;;;9.93;6.88;;;;;;;;;;4982187;28;20471;-72
2021/10/10 01:51:02;;;;;;;10.18;7.05;;;;;;;;;;4990474;28;20146;-71
2021/10/10 01:53:29;;;;;;;7.93;6.57;;;;;;;;;;4985729;28;20121;-71
2021/10/10 01:55:55;;;;;;;8.10;6.38;;;;;;;;;;4974310;28;20463;-71
2021/10/10 01:58:21;;;;;;;7.30;5.80;;;;;;;;;;4973852;28;20054;-72
2021/10/10 02:00:47;;;;;;;11.43;6.57;;;;;;;;;;4973703;28;20387;-71
2021/10/10 02:03:13;;;;;;;7.22;5.72;;;;;;;;;;4974532;28;20046;-71
2021/10/10 02:05:39;;;;;;;7.65;5.43;;;;;;;;;;4981549;28;20104;-71
2021/10/10 02:08:06;;;;;;;6.20;4.57;;;;;;;;;;4975794;28;20049;-71
2021/10/10 02:10:32;;;;;;;5.57;4.55;;;;;;;;;;4983152;28;20584;-71
2021/10/10 02:12:58;;;;;;;6.65;5.50;;;;;;;;;;4975248;28;20128;-71
2021/10/10 02:15:24;;;;;;;9.48;5.53;;;;;;;;;;4979010;28;20521;-71
2021/10/10 02:17:50;;;;;;;10.40;5.47;;;;;;;;;;4981038;28;20395;-71
2021/10/10 02:20:17;;;;;;;7.60;5.57;;;;;;;;;;4982102;28;20099;-71
2021/10/10 02:22:43;;;;;;;8.55;5.88;;;;;;;;;;4978202;28;20060;-71
2021/10/10 02:25:09;;;;;;;6.15;4.88;;;;;;;;;;4973533;28;20042;-71
2021/10/10 02:27:35;;;;;;;6.43;5.00;;;;;;;;;;4969513;28;20049;-72
2021/10/10 02:30:01;;;;;;;6.70;5.20;;;;;;;;;;4975513;28;20050;-71
2021/10/10 02:32:28;;;;;;;6.85;5.45;;;;;;;;;;4989219;28;20411;-71
2021/10/10 02:34:54;;;;;;;10.85;4.88;;;;;;;;;;4959090;28;20062;-71
2021/10/10 02:37:20;;;;;;;7.22;4.78;;;;;;;;;;4972873;28;20140;-71
2021/10/10 02:39:46;;;;;;;6.78;5.35;;;;;;;;;;4979426;28;20042;-71
2021/10/10 02:42:12;;;;;;;11.75;4.85;;;;;;;;;;4974465;28;20054;-71
2021/10/10 02:44:39;;;;;;;7.90;4.47;;;;;;;;;;4983542;28;20054;-71
2021/10/10 02:47:06;;;;;;;11.82;5.45;;;;;;;;;;4983181;28;20043;-71
2021/10/10 02:49:32;;;;;;;8.15;4.75;;;;;;;;;;4981067;28;20053;-71
2021/10/10 02:51:58;;;;;;;9.98;6.68;;;;;;;;;;4973922;28;20197;-71
2021/10/10 02:54:24;;;;;;;6.57;5.00;;;;;;;;;;4970225;28;20113;-71
2021/10/10 02:56:51;;;;;;;6.03;5.03;;;;;;;;;;4943283;28;20047;-71
2021/10/10 02:59:17;;;;;;;7.35;5.82;;;;;;;;;;4989718;28;20060;-71
2021/10/10 03:01:43;;;;;;;14.60;9.82;;;;;;;;;;4995476;28;20050;-71
2021/10/10 03:04:09;;;;;;;15.25;10.18;;;;;;;;;;4988518;28;20038;-71
2021/10/10 03:06:35;;;;;;;15.55;10.32;;;;;;;;;;4990818;28;20089;-73
2021/10/10 03:09:01;;;;;;;16.48;11.20;;;;;;;;;;5003717;28;20097;-74
2021/10/10 03:11:27;;;;;;;8.45;6.82;;;;;;;;;;5003015;28;20050;-73
2021/10/10 03:13:54;;;;;;;9.25;6.72;;;;;;;;;;4990338;28;20091;-71
2021/10/10 03:16:20;;;;;;;8.43;4.60;;;;;;;;;;4989062;28;20120;-71
2021/10/10 03:18:46;;;;;;;9.07;5.65;;;;;;;;;;4989685;28;20038;-71
2021/10/10 03:21:12;;;;;;;8.80;5.78;;;;;;;;;;4990583;28;20064;-71
2021/10/10 03:23:38;;;;;;;10.18;6.28;;;;;;;;;;5002644;28;20046;-71
2021/10/10 03:26:04;;;;;;;12.60;8.85;;;;;;;;;;4987828;28;20049;-71
2021/10/10 03:28:31;;;;;;;14.23;7.85;;;;;;;;;;4989835;28;20440;-71
2021/10/10 03:30:58;;;;;;;10.95;7.13;;;;;;;;;;4988271;28;20172;-71
2021/10/10 03:33:24;;;;;;;15.07;10.13;;;;;;;;;;4982859;28;20054;-71
2021/10/10 03:35:50;;;;;;;19.67;11.40;;;;;;;;;;5001536;28;20378;-71
2021/10/10 03:38:16;;;;;;;18.48;13.02;;;;;;;;;;4987807;28;20050;-71
2021/10/10 03:40:43;;;;;;;18.95;13.18;;;;;;;;;;4987580;28;20542;-71
2021/10/10 03:43:09;;;;;;;29.20;15.90;;;;;;;;;;5003893;28;20046;-71
2021/10/10 03:45:35;;;;;;;31.63;18.98;;;;;;;;;;4992034;28;20057;-71
2021/10/10 03:48:01;;;;;;;29.02;20.08;;;;;;;;;;4987489;28;20469;-71
2021/10/10 03:50:27;;;;;;;31.42;21.77;;;;;;;;;;5002123;28;20049;-71
2021/10/10 03:52:54;;;;;;;33.33;22.52;;;;;;;;;;5002716;28;20161;-71
2021/10/10 03:57:48;;;;;;;28.80;21.05;;;;;;;;;;4995705;28;20138;-71
2021/10/10 04:00:14;;;;;;;29.70;21.02;;;;;;;;;;5007736;28;21198;-71
2021/10/10 04:02:42;;;;;;;31.60;22.30;;;;;;;;;;5005590;28;20124;-71
2021/10/10 04:05:37;;;;;;;60.35;20.70;;;;;;;;;;5008417;28;20048;-71
2021/10/10 04:07:56;;;;;;;28.38;19.50;;;;;;;;;;5006845;28;20104;-71
2021/10/10 04:10:22;;;;;;;32.20;19.35;;;;;;;;;;5008214;28;20053;-71
2021/10/10 04:12:48;;;;;;;35.35;17.98;;;;;;;;;;5002085;28;20375;-71
2021/10/10 04:15:15;;;;;;;49.33;17.88;;;;;;;;;;5020134;28;20045;-71
2021/10/10 04:17:41;;;;;;;20.77;16.83;;;;;;;;;;5006965;28;20141;-71
2021/10/10 04:20:08;;;;;;;16.15;13.93;;;;;;;;;;5004310;28;20052;-71
2021/10/10 04:22:34;;;;;;;19.10;12.43;;;;;;;;;;5008211;28;20066;-71
2021/10/10 04:25:01;;;;;;;32.38;13.98;;;;;;;;;;5005807;28;20054;-71
2021/10/10 04:27:27;;;;;;;17.08;14.13;;;;;;;;;;5005245;28;20049;-71
2021/10/10 04:29:53;;;;;;;16.52;14.18;;;;;;;;;;5006906;28;20104;-71
2021/10/10 04:32:19;;;;;;;13.95;12.05;;;;;;;;;;5009172;28;20520;-71
2021/10/10 04:34:45;;;;;;;15.35;10.63;;;;;;;;;;5006833;28;20062;-71
2021/10/10 04:37:11;;;;;;;14.55;12.30;;;;;;;;;;5008219;28;20100;-71
2021/10/10 04:39:38;;;;;;;13.85;11.85;;;;;;;;;;5004173;28;20045;-71
2021/10/10 04:42:05;;;;;;;14.90;11.80;;;;;;;;;;5003219;28;20450;-71
2021/10/10 04:44:32;;;;;;;13.15;10.50;;;;;;;;;;5006310;28;20041;-71
2021/10/10 04:46:58;;;;;;;16.02;11.70;;;;;;;;;;5000818;28;20265;-71
2021/10/10 04:49:24;;;;;;;15.02;10.77;;;;;;;;;;5005099;28;20117;-71
2021/10/10 04:51:51;;;;;;;12.25;10.48;;;;;;;;;;5006513;28;20042;-71
2021/10/10 04:54:17;;;;;;;11.55;8.30;;;;;;;;;;5005765;28;20077;-71
2021/10/10 04:56:43;;;;;;;11.40;9.45;;;;;;;;;;5006154;28;20057;-71
2021/10/10 04:59:09;;;;;;;12.63;9.63;;;;;;;;;;5003659;28;20392;-72
2021/10/10 05:01:35;;;;;;;14.90;10.65;;;;;;;;;;4994885;28;20489;-71
2021/10/10 05:04:01;;;;;;;13.05;10.75;;;;;;;;;;4991315;28;20081;-71
2021/10/10 05:06:27;;;;;;;15.50;11.68;;;;;;;;;;4991623;28;20046;-71
2021/10/10 05:08:54;;;;;;;13.93;11.15;;;;;;;;;;5002354;28;20128;-71
2021/10/10 05:11:20;;;;;;;18.45;13.07;;;;;;;;;;5004708;28;20050;-71
2021/10/10 05:13:46;;;;;;;16.33;11.70;;;;;;;;;;5003114;28;20034;-71
2021/10/10 05:16:12;;;;;;;16.40;10.65;;;;;;;;;;5000914;28;20045;-71
2021/10/10 05:18:39;;;;;;;31.20;10.45;;;;;;;;;;4991335;28;20116;-71
2021/10/10 05:21:05;;;;;;;40.63;10.25;;;;;;;;;;4988663;28;20049;-71
2021/10/10 05:23:31;;;;;;;27.08;12.05;;;;;;;;;;5001230;28;20041;-71
2021/10/10 05:25:58;;;;;;;19.33;12.40;;;;;;;;;;4985092;28;20057;-71
2021/10/10 05:28:25;;;;;;;18.48;11.55;;;;;;;;;;4990719;28;20038;-71
2021/10/10 05:30:51;;;;;;;26.48;12.27;;;;;;;;;;4983778;28;20490;-71
2021/10/10 05:33:18;;;;;;;20.27;14.10;;;;;;;;;;4991956;28;20038;-71
2021/10/10 05:35:45;;;;;;;17.35;10.38;;;;;;;;;;5007059;28;20501;-71
2021/10/10 05:38:12;;;;;;;20.45;14.43;;;;;;;;;;4998616;28;20038;-71
2021/10/10 05:40:38;;;;;;;20.88;13.52;;;;;;;;;;4988628;28;20383;-71
2021/10/10 05:43:04;;;;;;;22.50;15.98;;;;;;;;;;4993932;28;20456;-71
2021/10/10 05:45:31;;;;;;;41.85;25.38;;;;;;;;;;4988234;28;20073;-71
2021/10/10 05:47:57;;;;;;;44.60;24.73;;;;;;;;;;4997847;28;20458;-71
2021/10/10 05:50:23;;;;;;;33.97;23.60;;;;;;;;;;4993441;28;20061;-71
2021/10/10 05:52:50;;;;;;;32.45;22.60;;;;;;;;;;4989398;28;20557;-71
2021/10/10 05:55:17;;;;;;;32.95;22.33;;;;;;;;;;5003662;28;20053;-71
2021/10/10 05:57:46;;;;;;;33.28;21.17;;;;;;;;;;4995551;28;20058;-71
2021/10/10 06:00:13;;;;;;;30.85;20.08;;;;;;;;;;4988321;28;20441;-71
2021/10/10 06:02:39;;;;;;;26.38;18.88;;;;;;;;;;4994302;28;20081;-71
2021/10/10 06:05:06;;;;;;;27.75;18.98;;;;;;;;;;4995311;28;20498;-71
2021/10/10 06:07:32;;;;;;;28.45;20.27;;;;;;;;;;4995529;28;20041;-71
2021/10/10 06:09:58;;;;;;;36.35;23.65;;;;;;;;;;4996975;28;20052;-71
2021/10/10 06:12:24;;;;;;;32.45;22.83;;;;;;;;;;5002409;28;20042;-71
2021/10/10 06:14:51;;;;;;;30.02;20.63;;;;;;;;;;4990003;28;20049;-74
2021/10/10 06:17:18;;;;;;;32.42;22.00;;;;;;;;;;4989343;28;20117;-74
2021/10/10 06:19:45;;;;;;;37.13;22.20;;;;;;;;;;4987576;28;20513;-74
2021/10/10 06:22:11;;;;;;;32.42;21.85;;;;;;;;;;4987290;28;20046;-72
2021/10/10 06:24:38;;;;;;;27.92;20.95;;;;;;;;;;4999580;28;20038;-72
2021/10/10 06:27:04;;;;;;;32.10;20.95;;;;;;;;;;4984583;28;20041;-72
2021/10/10 06:29:30;;;;;;;33.92;20.98;;;;;;;;;;4987211;28;20041;-73
2021/10/10 06:31:57;;;;;;;26.95;18.05;;;;;;;;;;4985525;28;20042;-73
2021/10/10 06:34:23;;;;;;;26.67;18.30;;;;;;;;;;4998453;28;20052;-73
2021/10/10 06:36:49;;;;;;;27.10;19.00;;;;;;;;;;4997484;28;20537;-72
2021/10/10 06:39:16;;;;;;;25.70;16.58;;;;;;;;;;4986723;28;20117;-72
2021/10/10 06:41:45;;;;;;;22.83;16.55;;;;;;;;;;4998036;28;20065;-72
2021/10/10 06:44:12;;;;;;;26.33;17.55;;;;;;;;;;4984454;28;20057;-73
2021/10/10 06:46:38;;;;;;;25.52;19.90;;;;;;;;;;4986260;28;20481;-73
2021/10/10 06:49:04;;;;;;;29.27;20.85;;;;;;;;;;4988237;28;20172;-72
2021/10/10 06:51:30;;;;;;;34.38;21.17;;;;;;;;;;4987268;28;20121;-72
2021/10/10 06:53:57;;;;;;;33.78;21.38;;;;;;;;;;5002142;28;20473;-72
2021/10/10 06:56:23;;;;;;;29.30;21.25;;;;;;;;;;4990506;28;20065;-72
2021/10/10 06:58:50;;;;;;;33.90;22.52;;;;;;;;;;4999092;28;20093;-72
2021/10/10 07:01:17;;;;;;;32.88;21.60;;;;;;;;;;4999112;28;20462;-73
2021/10/10 07:03:43;;;;;;;33.78;21.17;;;;;;;;;;4987465;28;20064;-72
2021/10/10 07:06:10;;;;;;;28.48;18.70;;;;;;;;;;4971221;28;20061;-73
2021/10/10 07:08:36;;;;;;;32.47;21.38;;;;;;;;;;4981749;28;20046;-73
2021/10/10 07:11:02;;;;;;;36.08;22.05;;;;;;;;;;4990034;28;20477;-74
2021/10/10 07:13:28;;;;;;;31.17;21.70;;;;;;;;;;4986212;28;20133;-72
2021/10/10 07:15:55;;;;;;;31.77;21.90;;;;;;;;;;4997986;28;20049;-71
2021/10/10 07:18:26;;;;;;;33.08;20.98;;;;;;;;;;4985208;28;20057;-73
2021/10/10 07:23:32;;;;;;;35.30;24.02;;;;;;;;;;4993879;28;20406;-72
2021/10/10 07:25:59;;;;;;;40.20;27.30;;;;;;;;;;4989125;28;20045;-73
2021/10/10 07:28:26;;;;;;;42.80;27.83;;;;;;;;;;4993996;28;20045;-77
2021/10/10 07:30:52;;;;;;;42.17;27.60;;;;;;;;;;4987753;28;20064;-72
2021/10/10 07:33:19;;;;;;;48.78;29.10;;;;;;;;;;5004734;28;20042;-73
2021/10/10 07:35:45;;;;;;;52.80;30.80;;;;;;;;;;5007151;28;20501;-72
2021/10/10 07:38:11;;;;;;;54.35;33.47;;;;;;;;;;4976593;28;20159;-72
2021/10/10 07:40:38;;;;;;;47.75;32.83;;;;;;;;;;5008058;28;20046;-72
2021/10/10 07:43:04;;;;;;;49.03;34.33;;;;;;;;;;5013252;28;20048;-74
2021/10/10 07:45:33;;;;;;;53.75;34.42;;;;;;;;;;4995889;28;20046;-72
2021/10/10 07:48:03;;;;;;;46.95;32.53;;;;;;;;;;4994344;28;20125;-73
2021/10/10 07:50:30;;;;;;;47.15;32.67;;;;;;;;;;4999719;28;20162;-73
2021/10/10 07:52:56;;;;;;;50.50;32.88;;;;;;;;;;4995676;28;20038;-73
2021/10/10 07:55:22;;;;;;;45.17;32.75;;;;;;;;;;4996358;28;20042;-73
2021/10/10 07:57:48;;;;;;;46.38;32.17;;;;;;;;;;4993421;28;20053;-73
2021/10/10 08:00:15;;;;;;;47.25;32.80;;;;;;;;;;5008087;28;20068;-71
2021/10/10 08:02:54;;;;;;;46.22;32.47;;;;;;;;;;5003584;28;20496;-73
2021/10/10 08:05:21;;;;;;;43.88;31.63;;;;;;;;;;5006950;28;20058;-72
2021/10/10 08:07:48;;;;;;;46.88;30.50;;;;;;;;;;5003623;28;20398;-72
2021/10/10 08:10:14;;;;;;;49.40;33.97;;;;;;;;;;5008086;28;20681;-73
2021/10/10 08:12:41;;;;;;;45.78;32.85;;;;;;;;;;5006521;28;20034;-73
2021/10/10 08:15:07;;;;;;;43.05;30.50;;;;;;;;;;5007970;28;20147;-73
2021/10/10 08:17:34;;;;;;;47.45;32.08;;;;;;;;;;4999158;28;20030;-73
2021/10/10 08:20:00;;;;;;;44.40;30.52;;;;;;;;;;5007500;28;20497;-72
2021/10/10 08:22:26;;;;;;;43.70;31.45;;;;;;;;;;5008926;28;20096;-73
2021/10/10 08:24:52;;;;;;;49.58;34.08;;;;;;;;;;5008314;28;20508;-73
2021/10/10 08:27:19;;;;;;;45.22;31.13;;;;;;;;;;5005710;28;20049;-73
2021/10/10 08:29:45;;;;;;;46.13;31.90;;;;;;;;;;5003816;28;20133;-73
2021/10/10 08:32:11;;;;;;;47.85;32.78;;;;;;;;;;5005826;28;20064;-73
2021/10/10 08:34:37;;;;;;;53.75;33.10;;;;;;;;;;5005855;28;20046;-73
2021/10/10 08:37:04;;;;;;;46.05;32.78;;;;;;;;;;5009921;28;20464;-73
2021/10/10 08:39:30;;;;;;;50.22;32.70;;;;;;;;;;4998346;28;20054;-74
2021/10/10 08:41:57;;;;;;;47.15;32.78;;;;;;;;;;4987551;28;20089;-73
2021/10/10 08:44:31;;;;;;;47.88;31.52;;;;;;;;;;5003505;28;20056;-73
2021/10/10 08:47:02;;;;;;;51.65;32.63;;;;;;;;;;4997210;28;20666;-73
2021/10/10 08:49:30;;;;;;;45.95;31.58;;;;;;;;;;5002413;28;20107;-73
2021/10/10 08:51:56;;;;;;;50.72;33.42;;;;;;;;;;5002024;28;20050;-73
2021/10/10 08:54:22;;;;;;;55.13;34.00;;;;;;;;;;5005880;28;20041;-73
2021/10/10 08:56:50;;;;;;;50.67;35.05;;;;;;;;;;5006794;28;20046;-73
2021/10/10 08:59:20;;;;;;;50.97;34.65;;;;;;;;;;4970738;28;20521;-73
2021/10/10 09:01:47;;;;;;;49.85;36.55;;;;;;;;;;4982689;28;20149;-73
2021/10/10 09:04:14;;;;;;;56.35;37.25;;;;;;;;;;4969558;28;20054;-72
2021/10/10 09:06:40;;;;;;;48.63;35.75;;;;;;;;;;4969578;28;20054;-74
2021/10/10 09:09:25;;;;;;;57.80;40.20;;;;;;;;;;4971673;28;20624;-73
2021/10/10 09:11:51;;;;;;;48.88;35.38;;;;;;;;;;4972429;28;20486;-73
2021/10/10 09:14:17;;;;;;;50.25;36.47;;;;;;;;;;4973845;28;20116;-73
2021/10/10 09:16:44;;;;;;;49.30;35.53;;;;;;;;;;4969170;28;20050;-73
2021/10/10 09:19:29;;;;;;;53.53;36.75;;;;;;;;;;4972874;28;20074;-72
2021/10/10 09:21:59;;;;;;;53.92;36.95;;;;;;;;;;4977648;28;20065;-73
2021/10/10 09:24:27;;;;;;;50.85;35.00;;;;;;;;;;4956824;28;20399;-74
2021/10/10 09:26:53;;;;;;;53.75;35.90;;;;;;;;;;4971555;28;20050;-74
2021/10/10 09:29:33;;;;;;;55.22;35.60;;;;;;;;;;4988735;28;20042;-73
2021/10/10 09:32:09;;;;;;;50.42;35.42;;;;;;;;;;4986813;28;20120;-74
2021/10/10 09:34:36;;;;;;;47.28;35.17;;;;;;;;;;4974921;28;20050;-74
2021/10/10 09:37:12;;;;;;;49.17;33.08;;;;;;;;;;4973697;28;20133;-73
2021/10/10 09:39:42;;;;;;;52.85;35.67;;;;;;;;;;4973782;28;20045;-73
2021/10/10 09:42:08;;;;;;;50.63;34.85;;;;;;;;;;4970682;28;20125;-73
2021/10/10 09:44:45;;;;;;;51.15;33.67;;;;;;;;;;4985349;28;20544;-73
2021/10/10 09:47:12;;;;;;;52.28;34.78;;;;;;;;;;4971312;28;20082;-71
2021/10/10 09:49:38;;;;;;;52.50;36.83;;;;;;;;;;4965844;28;20109;-71
2021/10/10 09:52:07;;;;;;;56.25;36.17;;;;;;;;;;4972232;28;20077;-71
2021/10/10 09:54:52;;;;;;;50.97;35.38;;;;;;;;;;4985171;28;20034;-71
2021/10/10 09:57:19;;;;;;;49.28;34.47;;;;;;;;;;4991955;28;20053;-71
2021/10/10 09:59:45;;;;;;;55.25;36.05;;;;;;;;;;4992625;28;20125;-71
2021/10/10 10:02:11;;;;;;;56.42;36.47;;;;;;;;;;5009369;28;20093;-71
2021/10/10 10:04:43;;;;;;;49.85;34.45;;;;;;;;;;4989822;28;20474;-71
2021/10/10 10:07:11;;;;;;;45.90;33.70;;;;;;;;;;4984577;28;20073;-70
2021/10/10 10:09:37;;;;;;;48.85;33.85;;;;;;;;;;5008580;28;20148;-70
2021/10/10 10:12:03;;;;;;;54.83;35.65;;;;;;;;;;4995187;28;20049;-70
2021/10/10 10:14:30;;;;;;;49.17;32.53;;;;;;;;;;4994908;28;20143;-70
2021/10/10 10:16:58;;;;;;;64.55;40.05;;;;;;;;;;4994127;28;20383;-70
2021/10/10 10:19:26;;;;;;;56.15;36.63;;;;;;;;;;4991897;28;20045;-70
2021/10/10 10:21:53;;;;;;;56.08;37.25;;;;;;;;;;4993205;28;20042;-70
2021/10/10 10:24:21;;;;;;;58.22;40.38;;;;;;;;;;5007630;28;20045;-71
2021/10/10 10:26:47;;;;;;;63.42;41.75;;;;;;;;;;4993359;28;20076;-70
2021/10/10 10:29:16;;;;;;;52.95;37.90;;;;;;;;;;5007264;28;20045;-70
2021/10/10 10:31:44;;;;;;;57.15;38.95;;;;;;;;;;4997399;28;20057;-70
2021/10/10 10:34:26;;;;;;;56.90;39.35;;;;;;;;;;4996303;28;20557;-70
2021/10/10 10:37:03;;;;;;;65.15;41.17;;;;;;;;;;4993704;28;20096;-70
2021/10/10 10:39:33;;;;;;;64.43;39.53;;;;;;;;;;4986922;28;20053;-70
2021/10/10 10:42:00;;;;;;;61.25;42.08;;;;;;;;;;4995935;28;20060;-70
2021/10/10 10:44:37;;;;;;;60.45;39.92;;;;;;;;;;5008348;28;20721;-70
2021/10/10 10:47:04;;;;;;;61.72;41.80;;;;;;;;;;4989614;28;20042;-70
2021/10/10 10:49:49;;;;;;;63.60;41.72;;;;;;;;;;4993714;28;20096;-70
2021/10/10 10:52:23;;;;;;;53.70;38.90;;;;;;;;;;4992215;28;20046;-70
2021/10/10 10:54:54;;;;;;;66.03;41.58;;;;;;;;;;4997748;28;20093;-70
2021/10/10 10:57:27;;;;;;;60.92;39.80;;;;;;;;;;5012191;28;20057;-70
2021/10/10 10:59:53;;;;;;;;;;;;;;;;;;5004820;28;20502;-70
2021/10/10 11:02:19;;;;;;;58.95;38.88;;;;;;;;;;5016296;28;19921;-70
2021/10/10 11:05:03;;;;;;;56.13;38.78;;;;;;;;;;4997655;28;20526;-70
2021/10/10 11:07:33;;;;;;;51.88;38.03;;;;;;;;;;5013539;28;20191;-70
2021/10/10 11:10:02;;;;;;;50.67;37.15;;;;;;;;;;5017433;28;20057;-70
2021/10/10 11:12:29;;;;;;;53.28;39.55;;;;;;;;;;5011796;28;20490;-70
2021/10/10 11:15:10;;;;;;;55.28;36.70;;;;;;;;;;5011227;28;20788;-70
2021/10/10 11:17:37;;;;;;;48.30;35.40;;;;;;;;;;4995649;28;20148;-70
2021/10/10 11:20:03;;;;;;;48.13;34.13;;;;;;;;;;5012158;28;20041;-71
2021/10/10 11:22:29;;;;;;;53.80;36.00;;;;;;;;;;5012844;28;20046;-71
2021/10/10 11:24:56;;;;;;;56.05;36.40;;;;;;;;;;5015071;28;20042;-70
2021/10/10 11:27:22;;;;;;;52.03;34.40;;;;;;;;;;5007572;28;20658;-70
2021/10/10 11:29:49;;;;;;;50.90;36.38;;;;;;;;;;5016154;28;20053;-70
2021/10/10 11:32:15;;;;;;;49.63;34.47;;;;;;;;;;4999026;28;20057;-70
2021/10/10 11:34:41;;;;;;;49.00;34.13;;;;;;;;;;5015004;28;20038;-70
2021/10/10 11:37:12;;;;;;;47.97;35.45;;;;;;;;;;5010441;28;20136;-70
2021/10/10 11:39:38;;;;;;;48.53;33.75;;;;;;;;;;4992401;28;20424;-70
2021/10/10 11:42:14;;;;;;;49.63;34.75;;;;;;;;;;4994599;28;20072;-70
2021/10/10 11:44:42;;;;;;;50.63;35.00;;;;;;;;;;4996506;28;20037;-70
2021/10/10 11:47:24;;;;;;;41.38;30.27;;;;;;;;;;4996326;28;20053;-70
2021/10/10 11:50:01;;;;;;;47.63;32.67;;;;;;;;;;4995669;28;20057;-70
2021/10/10 11:52:31;;;;;;;41.53;31.73;;;;;;;;;;4998571;28;20058;-70
2021/10/10 11:55:07;;;;;;;41.22;29.77;;;;;;;;;;4998162;28;20038;-70
2021/10/10 11:57:34;;;;;;;40.92;28.30;;;;;;;;;;4995327;28;20199;-70
2021/10/10 12:00:01;;;;;;;42.08;28.98;;;;;;;;;;4992948;28;20046;-70
2021/10/10 12:02:39;;;;;;;38.03;28.80;;;;;;;;;;4989085;28;20042;-70
2021/10/10 12:05:05;;;;;;;46.08;31.13;;;;;;;;;;4991515;28;20045;-67
2021/10/10 12:07:32;;;;;;;40.25;28.73;;;;;;;;;;5010735;28;20144;-67
2021/10/10 12:09:58;;;;;;;37.55;28.88;;;;;;;;;;5012421;28;20375;-67
2021/10/10 12:12:25;;;;;;;37.97;28.50;;;;;;;;;;4994371;28;20045;-67
2021/10/10 12:14:52;;;;;;;40.95;27.98;;;;;;;;;;4998507;28;20045;-67
2021/10/10 12:17:38;;;;;;;43.92;26.27;;;;;;;;;;4998522;28;20042;-67
2021/10/10 12:20:23;;;;;;;33.40;26.17;;;;;;;;;;4998556;28;20047;-67
2021/10/10 12:22:53;;;;;;;32.47;25.13;;;;;;;;;;5020501;28;20041;-67
2021/10/10 12:25:21;;;;;;;30.38;22.25;;;;;;;;;;5019572;28;20046;-68
2021/10/10 12:27:55;;;;;;;32.13;23.90;;;;;;;;;;5001338;28;20041;-67
2021/10/10 12:30:25;;;;;;;30.98;24.23;;;;;;;;;;5008995;28;20428;-67
2021/10/10 12:32:52;;;;;;;30.35;22.90;;;;;;;;;;4996267;28;20101;-68
2021/10/10 12:35:18;;;;;;;33.45;24.90;;;;;;;;;;4999664;28;20080;-68
2021/10/10 12:37:48;;;;;;;27.75;21.73;;;;;;;;;;5018520;28;20042;-67
2021/10/10 12:40:26;;;;;;;30.02;22.45;;;;;;;;;;5002037;28;20045;-67
2021/10/10 12:42:52;;;;;;;27.88;19.88;;;;;;;;;;5011064;28;20096;-68
2021/10/10 12:45:27;;;;;;;28.35;21.08;;;;;;;;;;4995356;28;20033;-68
2021/10/10 12:48:00;;;;;;;24.10;20.00;;;;;;;;;;4999942;28;20079;-67
2021/10/10 12:50:26;;;;;;;26.98;20.75;;;;;;;;;;4978316;28;20053;-68
2021/10/10 12:52:52;;;;;;;30.15;23.35;;;;;;;;;;5017088;28;20045;-67
2021/10/10 12:55:20;;;;;;;29.95;21.52;;;;;;;;;;4999512;28;20487;-67
2021/10/10 12:57:51;;;;;;;29.90;21.88;;;;;;;;;;4994351;28;20050;-67
2021/10/10 13:00:18;;;;;;;27.10;20.38;;;;;;;;;;5002704;28;20049;-68
2021/10/10 13:02:44;;;;;;;25.45;20.10;;;;;;;;;;5008340;28;20048;-68
2021/10/10 13:05:11;;;;;;;28.48;20.48;;;;;;;;;;5004605;28;20089;-69
2021/10/10 13:07:38;;;;;;;27.58;19.60;;;;;;;;;;4991307;28;20485;-69
2021/10/10 13:10:05;;;;;;;31.52;22.02;;;;;;;;;;5001987;28;20153;-69
2021/10/10 13:12:31;;;;;;;28.35;20.77;;;;;;;;;;5007111;28;20133;-69
2021/10/10 13:14:58;;;;;;;28.55;20.90;;;;;;;;;;5006967;28;20052;-69
2021/10/10 13:17:24;;;;;;;30.13;21.77;;;;;;;;;;5008202;28;20100;-69
2021/10/10 13:19:50;;;;;;;30.17;22.55;;;;;;;;;;5007514;28;20137;-69
2021/10/10 13:22:17;;;;;;;34.35;22.52;;;;;;;;;;5006105;28;20050;-69
2021/10/10 13:24:45;;;;;;;35.00;23.30;;;;;;;;;;5008549;28;21332;-69
2021/10/10 13:27:11;;;;;;;33.58;23.40;;;;;;;;;;5005537;28;20052;-69
2021/10/10 13:29:38;;;;;;;35.13;23.85;;;;;;;;;;5007775;28;20037;-69
2021/10/10 13:32:04;;;;;;;30.52;22.98;;;;;;;;;;5008088;28;20485;-69
2021/10/10 13:34:30;;;;;;;31.30;23.63;;;;;;;;;;5008491;28;20144;-69
2021/10/10 13:36:56;;;;;;;34.30;24.77;;;;;;;;;;5007201;28;20041;-69
2021/10/10 13:39:23;;;;;;;32.03;23.00;;;;;;;;;;5003486;28;20045;-69
2021/10/10 13:41:50;;;;;;;31.95;22.95;;;;;;;;;;5002803;28;20052;-69
2021/10/10 13:44:17;;;;;;;38.55;24.38;;;;;;;;;;5004339;28;20493;-69
2021/10/10 13:46:43;;;;;;;39.05;23.23;;;;;;;;;;5008683;28;20077;-69
2021/10/10 13:49:09;;;;;;;30.27;22.80;;;;;;;;;;5006137;28;20104;-69
2021/10/10 13:51:36;;;;;;;33.88;23.70;;;;;;;;;;5008466;28;20183;-69
2021/10/10 13:54:02;;;;;;;33.95;23.80;;;;;;;;;;5008120;28;20053;-69
2021/10/10 13:56:28;;;;;;;32.50;24.52;;;;;;;;;;5008425;28;20053;-69
2021/10/10 13:58:54;;;;;;;29.85;22.40;;;;;;;;;;5007076;28;20370;-69
2021/10/10 14:01:20;;;;;;;29.02;20.75;;;;;;;;;;5006385;28;20446;-69
2021/10/10 14:03:47;;;;;;;26.83;19.85;;;;;;;;;;5005079;28;20054;-69
2021/10/10 14:06:14;;;;;;;24.08;19.10;;;;;;;;;;5008281;28;20104;-69
2021/10/10 14:08:40;;;;;;;21.58;18.27;;;;;;;;;;5005282;28;20046;-69
2021/10/10 14:11:06;;;;;;;22.27;17.25;;;;;;;;;;5005034;28;20172;-69
2021/10/10 14:13:32;;;;;;;28.83;18.42;;;;;;;;;;5004844;28;20509;-69
2021/10/10 14:15:59;;;;;;;25.17;17.75;;;;;;;;;;5008237;28;20041;-69
2021/10/10 14:18:26;;;;;;;21.30;17.92;;;;;;;;;;5006872;28;20486;-69
2021/10/10 14:20:53;;;;;;;20.38;16.65;;;;;;;;;;5005297;28;20045;-69
2021/10/10 14:23:19;;;;;;;26.40;18.90;;;;;;;;;;5008636;28;20132;-69
2021/10/10 14:25:46;;;;;;;24.38;18.88;;;;;;;;;;5005936;28;20046;-69
2021/10/10 14:28:12;;;;;;;21.58;17.52;;;;;;;;;;5007864;28;20069;-69